Pagina principale
METAR-TAF:

METAR-TAF

Aeroporti :

Fritzlar, Germania

latitudine: 51-07N, longitudine: 009-17E, altezza: 172 m

Osservazione

Il bollettino è stato emesso 1 ora e 5 minuti fa, alle 05:20 UTC
Vento 10 kt da nord
Temperature 15°C
Umidità 77%
Pressione 1027 hPa
Visibilità 10 km o più
Nubi sparse ad un'altezza di 1300 ft

METAR: ETHF 270520Z 36010KT 9999 SCT013 15/11 Q1027 BLU+BLU+

Ora: 08:25 (06:25 UTC)

Previsione

Il bollettino è stato emesso 2 ore e 14 minuti fa, alle 04:11 UTC
Previsione valida dal 27 alle 05 UTC al 27 alle 14 UTC
Vento 8 kt da nord
Visibilità 10 km o più
Poco nuvoloso ad un'altezza di 2000 ft
Temporaneamente
dal 27 alle 05 UTC al 27 alle 07 UTC
Vento 5 kt da nord
Visibilità 10 km o più
Nuvoloso ad un'altezza di 1000 ft

TAF: ETHF 270411Z 2705/2714 35008KT 9999 NSW FEW020 TEMPO 2705/2707 01005KT 9999 NSW BKN010

Osservazioni e previsioni meteorologiche di più di 4000 aeroporti (messaggi METAR e TAF).

Le stazioni disponibili sono rappresentate dai dischi gialli e rossi sulla carta.

Puntare il mouse per vedere il nome della stazione.

Clicca sopra per visualizzare le osservazioni e previsioni meteorologiche.

Per cambiare la mappa : fare clic sui pulsanti verdi con una croce nera per ingrandire, il pulsante verde con un trattino per diminuire, o sulla freccia verde per le mappe adiacenti.


METAR-TAF: